Wakefield, New York
Current Conditions -  °F | °C
As of 2:51 PM on Friday 19 Dec 2014 (Local Time) from KLGA Reporting Station
Few Clouds Few Clouds  
Wind Chill: 27°   Ceiling: Unl
Heat Index: 37°   Visibility: 10mi
Dew Point: 21°   Wind: 18mph
Humidity: 52%   Direction: 300°WNW
Pressure: 30.05"   Gusts: 23mph
Location:  40.8905°N, 73.8471°W
Report Text: KLGA 191951Z 30016G20KT 10SM FEW040 03/M06 A3005 RMK AO2 SLP174 T00281061
Loading
Personal Weather Stations






























Interactive Weather Map New forecast layout! Learn more

10-Day Weather Forecast

Advertisements
Track Severe Weather on mobile